createdAt,value
2019-02-26T00:01:04.029Z,101969.00
2019-02-26T00:03:35.289Z,101957.00
2019-02-26T00:06:04.721Z,101958.00
2019-02-26T00:08:34.180Z,101961.00
2019-02-26T00:11:06.047Z,101965.00
2019-02-26T00:13:36.563Z,101961.00
2019-02-26T00:16:08.002Z,101955.00
2019-02-26T00:18:37.546Z,101953.00
2019-02-26T00:21:06.996Z,101955.00
2019-02-26T00:23:36.491Z,101953.00
2019-02-26T00:26:05.992Z,101948.00
2019-02-26T00:28:36.547Z,101941.00
2019-02-26T00:31:06.684Z,101946.00
2019-02-26T00:33:36.183Z,101928.00
2019-02-26T00:36:07.168Z,101942.00
2019-02-26T00:38:37.739Z,101924.00
2019-02-26T00:41:08.200Z,101929.00
2019-02-26T00:43:37.647Z,101914.00
2019-02-26T00:46:08.563Z,101907.00
2019-02-26T00:48:40.610Z,101893.00
2019-02-26T00:51:09.493Z,101896.00
2019-02-26T00:53:38.950Z,101898.00
2019-02-26T00:56:10.306Z,101888.00
2019-02-26T00:58:41.587Z,101885.00
2019-02-26T01:01:12.935Z,101869.00
2019-02-26T01:03:43.047Z,101875.00
2019-02-26T01:06:13.200Z,101891.00
2019-02-26T01:08:44.733Z,101880.00
2019-02-26T01:11:13.850Z,101872.00
2019-02-26T01:13:43.298Z,101870.00
2019-02-26T01:16:12.818Z,101882.00
2019-02-26T01:18:44.267Z,101861.00
2019-02-26T01:21:13.484Z,101852.00
2019-02-26T01:23:42.933Z,101848.00
2019-02-26T01:26:12.603Z,101852.00
2019-02-26T01:28:44.156Z,101854.00
2019-02-26T01:31:13.228Z,101849.00
2019-02-26T01:33:42.731Z,101853.00
2019-02-26T01:36:13.874Z,101863.00
2019-02-26T01:38:45.867Z,101857.00
2019-02-26T01:41:15.751Z,101858.00
2019-02-26T01:43:45.785Z,101851.00
2019-02-26T01:46:16.961Z,101854.00
2019-02-26T01:48:48.154Z,101853.00
2019-02-26T01:51:19.366Z,101833.00
2019-02-26T01:53:51.048Z,101834.00
2019-02-26T01:56:20.561Z,101831.00
2019-02-26T01:58:56.514Z,101827.00
2019-02-26T02:01:23.274Z,101830.00
2019-02-26T02:03:53.828Z,101833.00
2019-02-26T02:06:23.649Z,101832.00
2019-02-26T02:08:55.536Z,101830.00
2019-02-26T02:11:28.278Z,101827.00
2019-02-26T02:13:55.725Z,101831.00
2019-02-26T02:16:28.551Z,101825.00
2019-02-26T02:18:58.185Z,101835.00
2019-02-26T02:21:30.962Z,101827.00
2019-02-26T02:23:59.650Z,101820.00
2019-02-26T02:26:29.248Z,101827.00
2019-02-26T02:28:58.779Z,101806.00
2019-02-26T02:31:31.214Z,101802.00
2019-02-26T02:33:59.426Z,101800.00
2019-02-26T02:36:28.889Z,101781.00
2019-02-26T02:38:58.347Z,101781.00
2019-02-26T02:41:27.832Z,101782.00
2019-02-26T02:43:57.306Z,101780.00
2019-02-26T02:46:26.818Z,101776.00
2019-02-26T02:48:56.638Z,101777.00
2019-02-26T02:51:28.019Z,101767.00
2019-02-26T02:53:59.219Z,101768.00
2019-02-26T02:56:30.764Z,101772.00
2019-02-26T02:58:59.810Z,101764.00
2019-02-26T03:01:29.272Z,101767.00
2019-02-26T03:04:01.034Z,101764.00
2019-02-26T03:06:30.612Z,101777.00
2019-02-26T03:09:01.128Z,101776.00
2019-02-26T03:11:35.919Z,101780.00
2019-02-26T03:14:01.847Z,101779.00
2019-02-26T03:16:31.315Z,101777.00
2019-02-26T03:19:00.807Z,101765.00
2019-02-26T03:21:30.650Z,101762.00
2019-02-26T03:24:02.894Z,101760.00
2019-02-26T03:26:31.719Z,101753.00
2019-02-26T03:29:01.247Z,101766.00
2019-02-26T03:31:34.852Z,101760.00
2019-02-26T03:34:08.700Z,101762.00
2019-02-26T03:36:34.238Z,101759.00
2019-02-26T03:39:05.217Z,101754.00
2019-02-26T03:41:34.711Z,101764.00
2019-02-26T03:44:08.212Z,101757.00
2019-02-26T03:46:35.460Z,101760.00
2019-02-26T03:49:05.159Z,101753.00
2019-02-26T03:51:39.088Z,101763.00
2019-02-26T03:54:06.808Z,101739.00
2019-02-26T03:56:36.419Z,101744.00
2019-02-26T03:59:06.804Z,101749.00
2019-02-26T04:01:37.344Z,101756.00
2019-02-26T04:04:07.677Z,101746.00
2019-02-26T04:06:38.929Z,101743.00
2019-02-26T04:09:10.929Z,101733.00
2019-02-26T04:11:44.700Z,101720.00
2019-02-26T04:14:12.634Z,101720.00
2019-02-26T04:16:43.631Z,101717.00
2019-02-26T04:19:13.192Z,101714.00
2019-02-26T04:22:26.526Z,101726.00
2019-02-26T04:25:01.491Z,101741.00
2019-02-26T04:27:42.115Z,101745.00
2019-02-26T04:30:36.547Z,101737.00
2019-02-26T04:33:49.665Z,101728.00
2019-02-26T04:36:29.709Z,101706.00
2019-02-26T04:39:40.322Z,101698.00
2019-02-26T04:42:17.547Z,101697.00
2019-02-26T04:45:23.525Z,101692.00
2019-02-26T04:48:00.786Z,101688.00
2019-02-26T04:50:35.042Z,101696.00
2019-02-26T04:53:04.879Z,101695.00
2019-02-26T04:55:36.069Z,101686.00
2019-02-26T04:58:04.651Z,101691.00
2019-02-26T05:00:37.962Z,101682.00
2019-02-26T05:03:07.903Z,101678.00
2019-02-26T05:05:37.239Z,101681.00
2019-02-26T05:08:09.738Z,101687.00
2019-02-26T05:10:37.827Z,101693.00
2019-02-26T05:13:09.511Z,101692.00
2019-02-26T05:15:38.484Z,101703.00
2019-02-26T05:18:07.938Z,101712.00
2019-02-26T05:20:40.136Z,101731.00
2019-02-26T05:23:08.602Z,101748.00
2019-02-26T05:25:39.626Z,101764.00
2019-02-26T05:28:11.737Z,101761.00
2019-02-26T05:30:43.221Z,101754.00
2019-02-26T05:33:11.632Z,101744.00
2019-02-26T05:35:43.806Z,101739.00
2019-02-26T05:38:12.301Z,101735.00
2019-02-26T05:40:42.846Z,101738.00
2019-02-26T05:43:13.008Z,101730.00
2019-02-26T05:45:42.469Z,101732.00
2019-02-26T05:48:12.682Z,101750.00
2019-02-26T05:50:44.671Z,101746.00
2019-02-26T05:53:14.453Z,101764.00
2019-02-26T05:55:47.470Z,101765.00
2019-02-26T05:58:18.092Z,101779.00
2019-02-26T06:00:46.308Z,101791.00
2019-02-26T06:03:18.566Z,101797.00
2019-02-26T06:05:48.931Z,101813.00
2019-02-26T06:08:18.231Z,101811.00
2019-02-26T06:10:48.108Z,101809.00
2019-02-26T06:13:17.963Z,101797.00
2019-02-26T06:15:47.420Z,101820.00
2019-02-26T06:18:16.929Z,101817.00
2019-02-26T06:20:48.492Z,101824.00
2019-02-26T06:23:17.559Z,101819.00
2019-02-26T06:25:47.047Z,101812.00
2019-02-26T06:28:18.563Z,101825.00
2019-02-26T06:30:47.708Z,101833.00
2019-02-26T06:33:17.199Z,101842.00
2019-02-26T06:35:46.681Z,101848.00
2019-02-26T06:38:16.217Z,101850.00
2019-02-26T06:40:48.759Z,101840.00
2019-02-26T06:43:17.094Z,101823.00
2019-02-26T06:45:47.814Z,101836.00
2019-02-26T06:48:20.191Z,101845.00
2019-02-26T06:50:48.595Z,101825.00
2019-02-26T06:53:19.315Z,101826.00
2019-02-26T06:55:49.315Z,101828.00
2019-02-26T06:58:22.735Z,101839.00
2019-02-26T07:00:55.204Z,101845.00
2019-02-26T07:03:24.790Z,101840.00
2019-02-26T07:05:54.425Z,101836.00
2019-02-26T07:08:25.975Z,101827.00
2019-02-26T07:10:55.111Z,101826.00
2019-02-26T07:13:24.578Z,101839.00
2019-02-26T07:15:54.065Z,101841.00
2019-02-26T07:18:23.533Z,101831.00
2019-02-26T07:20:55.240Z,101818.00
2019-02-26T07:23:24.178Z,101807.00
2019-02-26T07:25:53.671Z,101812.00
2019-02-26T07:28:26.435Z,101829.00
2019-02-26T07:30:54.321Z,101842.00
2019-02-26T07:33:23.809Z,101841.00
2019-02-26T07:35:55.157Z,101830.00
2019-02-26T07:38:25.186Z,101831.00
2019-02-26T07:40:56.529Z,101826.00
2019-02-26T07:43:26.818Z,101825.00
2019-02-26T07:45:56.282Z,101814.00
2019-02-26T07:48:27.144Z,101806.00
2019-02-26T07:50:56.975Z,101823.00
2019-02-26T07:53:26.462Z,101823.00
2019-02-26T07:55:56.842Z,101834.00
2019-02-26T07:58:27.161Z,101839.00
2019-02-26T08:00:56.639Z,101845.00
2019-02-26T08:03:29.408Z,101848.00
2019-02-26T08:05:59.876Z,101838.00
2019-02-26T08:08:30.258Z,101832.00
2019-02-26T08:10:59.735Z,101829.00
2019-02-26T08:13:31.579Z,101827.00
2019-02-26T08:16:02.357Z,101839.00
2019-02-26T08:18:31.563Z,101827.00
2019-02-26T08:21:02.993Z,101837.00
2019-02-26T08:23:32.188Z,101839.00
2019-02-26T08:26:02.260Z,101839.00
2019-02-26T08:28:31.850Z,101844.00
2019-02-26T08:31:01.369Z,101832.00
2019-02-26T08:33:30.888Z,101833.00
2019-02-26T08:36:00.333Z,101847.00
2019-02-26T08:38:30.304Z,101842.00
2019-02-26T08:40:59.800Z,101853.00
2019-02-26T08:43:29.258Z,101845.00
2019-02-26T08:45:58.725Z,101844.00
2019-02-26T08:48:28.201Z,101851.00
2019-02-26T08:51:00.804Z,101873.00
2019-02-26T08:53:29.804Z,101862.00
2019-02-26T08:56:01.973Z,101864.00
2019-02-26T08:58:31.273Z,101862.00
2019-02-26T09:01:00.759Z,101857.00
2019-02-26T09:03:30.238Z,101857.00
2019-02-26T09:06:10.966Z,101869.00
2019-02-26T09:08:32.940Z,101865.00
2019-02-26T09:11:03.456Z,101856.00
2019-02-26T09:13:35.709Z,101862.00
2019-02-26T09:16:06.160Z,101853.00
2019-02-26T09:18:38.222Z,101855.00
2019-02-26T09:21:07.234Z,101858.00
2019-02-26T09:23:36.672Z,101855.00
2019-02-26T09:26:25.318Z,101855.00
2019-02-26T09:28:57.035Z,101861.00
2019-02-26T09:31:25.961Z,101859.00
2019-02-26T09:33:55.447Z,101870.00
2019-02-26T09:36:26.197Z,101871.00
2019-02-26T09:38:56.072Z,101883.00
2019-02-26T09:41:25.568Z,101874.00
2019-02-26T09:43:55.034Z,101869.00
2019-02-26T09:46:24.496Z,101876.00
2019-02-26T09:48:53.986Z,101870.00
2019-02-26T09:51:23.434Z,101870.00
2019-02-26T09:53:54.797Z,101865.00
2019-02-26T09:56:24.085Z,101875.00
2019-02-26T09:58:53.548Z,101870.00
2019-02-26T10:01:23.016Z,101861.00
2019-02-26T10:03:54.195Z,101858.00
2019-02-26T10:06:23.682Z,101865.00
2019-02-26T10:08:55.567Z,101860.00
2019-02-26T10:11:26.130Z,101870.00
2019-02-26T10:13:55.531Z,101870.00
2019-02-26T10:16:25.719Z,101870.00
2019-02-26T10:18:56.810Z,101872.00
2019-02-26T10:21:26.516Z,101872.00
2019-02-26T10:23:56.903Z,101859.00
2019-02-26T10:26:30.486Z,101847.00
2019-02-26T10:29:04.129Z,101864.00
2019-02-26T10:31:29.550Z,101864.00
2019-02-26T10:33:59.051Z,101857.00
2019-02-26T10:36:32.514Z,101855.00
2019-02-26T10:39:00.758Z,101857.00
2019-02-26T10:41:30.939Z,101851.00
2019-02-26T10:44:00.407Z,101851.00
2019-02-26T10:46:32.119Z,101835.00
2019-02-26T10:49:01.072Z,101839.00
2019-02-26T10:51:30.526Z,101846.00
2019-02-26T10:54:02.602Z,101837.00
2019-02-26T10:56:35.451Z,101842.00
2019-02-26T10:59:05.457Z,101838.00
2019-02-26T11:01:33.893Z,101842.00
2019-02-26T11:04:04.443Z,101836.00
2019-02-26T11:06:36.679Z,101832.00
2019-02-26T11:09:14.360Z,101827.00
2019-02-26T11:11:42.536Z,101821.00
2019-02-26T11:14:16.000Z,101814.00
2019-02-26T11:16:43.195Z,101798.00
2019-02-26T11:19:12.660Z,101804.00
2019-02-26T11:21:42.189Z,101799.00
2019-02-26T11:24:11.694Z,101799.00
2019-02-26T11:26:43.720Z,101797.00
2019-02-26T11:29:12.384Z,101792.00
2019-02-26T11:31:44.581Z,101795.00
2019-02-26T11:34:13.446Z,101796.00
2019-02-26T11:36:43.037Z,101789.00
2019-02-26T11:39:12.696Z,101800.00
2019-02-26T11:41:42.181Z,101794.00
2019-02-26T11:44:12.739Z,101782.00
2019-02-26T11:46:44.530Z,101778.00
2019-02-26T11:49:14.856Z,101786.00
2019-02-26T11:51:45.381Z,101782.00
2019-02-26T11:54:17.497Z,101774.00
2019-02-26T11:56:49.891Z,101771.00
2019-02-26T11:59:19.491Z,101772.00
2019-02-26T12:01:49.078Z,101771.00
2019-02-26T12:04:18.551Z,101774.00
2019-02-26T12:06:48.018Z,101771.00
2019-02-26T12:09:19.785Z,101787.00
2019-02-26T12:11:49.757Z,101789.00
2019-02-26T12:14:21.552Z,101781.00
2019-02-26T12:16:50.425Z,101780.00
2019-02-26T12:19:19.896Z,101775.00
2019-02-26T12:21:51.449Z,101782.00
2019-02-26T12:24:20.566Z,101787.00
2019-02-26T12:26:51.898Z,101780.00
2019-02-26T12:29:23.442Z,101777.00
2019-02-26T12:31:53.879Z,101774.00
2019-02-26T12:34:23.799Z,101775.00
2019-02-26T12:36:56.380Z,101772.00
2019-02-26T12:39:25.059Z,101773.00
2019-02-26T12:41:55.641Z,101754.00
2019-02-26T12:44:25.095Z,101764.00
2019-02-26T12:46:56.690Z,101754.00
2019-02-26T12:49:25.814Z,101744.00
2019-02-26T12:51:56.707Z,101749.00
2019-02-26T12:54:27.748Z,101739.00
2019-02-26T12:57:00.427Z,101742.00
2019-02-26T12:59:28.868Z,101734.00
2019-02-26T13:01:59.044Z,101728.00
2019-02-26T13:04:28.509Z,101733.00
2019-02-26T13:06:57.970Z,101731.00
2019-02-26T13:09:27.457Z,101722.00
2019-02-26T13:12:02.492Z,101727.00
2019-02-26T13:14:28.098Z,101719.00
2019-02-26T13:17:00.109Z,101715.00
2019-02-26T13:19:31.297Z,101709.00
2019-02-26T13:22:05.913Z,101705.00
2019-02-26T13:24:31.215Z,101702.00
2019-02-26T13:27:00.692Z,101714.00
2019-02-26T13:29:31.348Z,101697.00
2019-02-26T13:32:01.116Z,101702.00
2019-02-26T13:34:52.480Z,101702.00
2019-02-26T13:37:21.145Z,101708.00
2019-02-26T13:39:50.607Z,101700.00
2019-02-26T13:42:20.156Z,101691.00
2019-02-26T13:44:49.738Z,101687.00
2019-02-26T13:47:19.267Z,101680.00
2019-02-26T13:49:48.725Z,101684.00
2019-02-26T13:52:18.206Z,101678.00
2019-02-26T13:54:47.664Z,101689.00
2019-02-26T13:57:17.130Z,101698.00
2019-02-26T13:59:46.608Z,101688.00
2019-02-26T14:02:17.055Z,101693.00
2019-02-26T14:04:46.663Z,101704.00
2019-02-26T14:07:16.148Z,101704.00
2019-02-26T14:09:45.615Z,101700.00
2019-02-26T14:12:15.357Z,101699.00
2019-02-26T14:14:44.848Z,101698.00
2019-02-26T14:17:14.319Z,101685.00
2019-02-26T14:19:43.781Z,101695.00
2019-02-26T14:22:13.262Z,101693.00
2019-02-26T14:24:42.903Z,101687.00
2019-02-26T14:27:12.409Z,101698.00
2019-02-26T14:29:41.890Z,101703.00
2019-02-26T14:32:11.361Z,101714.00
2019-02-26T14:34:40.977Z,101710.00
2019-02-26T14:37:10.472Z,101704.00
2019-02-26T14:39:40.007Z,101716.00
2019-02-26T14:42:09.465Z,101730.00
2019-02-26T14:44:38.926Z,101722.00
2019-02-26T14:47:08.618Z,101725.00
2019-02-26T14:49:38.074Z,101718.00
2019-02-26T14:52:07.525Z,101724.00
2019-02-26T14:54:37.063Z,101722.00
2019-02-26T14:57:06.518Z,101732.00
2019-02-26T14:59:35.976Z,101736.00
2019-02-26T15:02:05.686Z,101742.00
2019-02-26T15:04:35.296Z,101741.00
2019-02-26T15:07:04.832Z,101740.00
2019-02-26T15:09:34.606Z,101753.00
2019-02-26T15:12:04.077Z,101745.00
2019-02-26T15:14:33.533Z,101753.00
2019-02-26T15:17:03.023Z,101751.00
2019-02-26T15:19:32.549Z,101749.00
2019-02-26T15:22:02.008Z,101755.00
2019-02-26T15:24:31.496Z,101753.00
2019-02-26T15:27:00.959Z,101761.00
2019-02-26T15:29:30.425Z,101765.00
2019-02-26T15:31:59.897Z,101763.00
2019-02-26T15:34:29.619Z,101771.00
2019-02-26T15:36:59.076Z,101772.00
2019-02-26T15:39:28.565Z,101785.00
2019-02-26T15:41:58.031Z,101790.00
2019-02-26T15:44:28.791Z,101787.00
2019-02-26T15:46:59.574Z,101792.00
2019-02-26T15:49:30.125Z,101789.00
2019-02-26T15:51:59.581Z,101793.00
2019-02-26T15:54:29.074Z,101791.00
2019-02-26T15:57:00.452Z,101792.00
2019-02-26T15:59:29.733Z,101780.00
2019-02-26T16:01:59.224Z,101790.00
2019-02-26T16:04:28.686Z,101789.00
2019-02-26T16:06:58.507Z,101789.00
2019-02-26T16:09:27.986Z,101784.00
2019-02-26T16:11:57.460Z,101783.00
2019-02-26T16:14:26.965Z,101791.00
2019-02-26T16:16:56.454Z,101793.00
2019-02-26T16:19:25.931Z,101799.00
2019-02-26T16:21:55.663Z,101798.00
2019-02-26T16:24:28.043Z,101799.00
2019-02-26T16:26:57.507Z,101799.00
2019-02-26T16:29:27.541Z,101804.00
2019-02-26T16:31:57.334Z,101810.00
2019-02-26T16:34:26.871Z,101819.00
2019-02-26T16:36:56.322Z,101820.00
2019-02-26T16:39:25.810Z,101824.00
2019-02-26T16:41:55.538Z,101828.00
2019-02-26T16:44:25.414Z,101827.00
2019-02-26T16:46:55.035Z,101830.00
2019-02-26T16:49:25.895Z,101831.00
2019-02-26T16:51:55.697Z,101831.00
2019-02-26T16:54:25.527Z,101829.00
2019-02-26T16:56:55.161Z,101846.00
2019-02-26T16:59:24.637Z,101849.00
2019-02-26T17:01:54.964Z,101855.00
2019-02-26T17:04:25.048Z,101859.00
2019-02-26T17:06:54.635Z,101860.00
2019-02-26T17:09:24.218Z,101865.00
2019-02-26T17:11:53.669Z,101862.00
2019-02-26T17:14:23.124Z,101878.00
2019-02-26T17:16:52.603Z,101863.00
2019-02-26T17:19:22.122Z,101875.00
2019-02-26T17:21:51.583Z,101874.00
2019-02-26T17:24:21.380Z,101870.00
2019-02-26T17:26:50.857Z,101881.00
2019-02-26T17:29:20.323Z,101877.00
2019-02-26T17:31:49.940Z,101863.00
2019-02-26T17:34:20.334Z,101871.00
2019-02-26T17:36:50.583Z,101863.00
2019-02-26T17:39:20.278Z,101862.00
2019-02-26T17:41:50.097Z,101863.00
2019-02-26T17:44:19.560Z,101863.00
2019-02-26T17:46:49.218Z,101859.00
2019-02-26T17:49:18.672Z,101854.00
2019-02-26T17:51:48.139Z,101854.00
2019-02-26T17:54:17.805Z,101855.00
2019-02-26T17:56:47.272Z,101862.00
2019-02-26T17:59:17.353Z,101862.00
2019-02-26T18:01:46.873Z,101875.00
2019-02-26T18:04:16.332Z,101870.00
2019-02-26T18:06:45.788Z,101870.00
2019-02-26T18:09:15.287Z,101864.00
2019-02-26T18:11:44.745Z,101861.00
2019-02-26T18:14:14.189Z,101872.00
2019-02-26T18:16:43.747Z,101880.00
2019-02-26T18:19:13.212Z,101871.00
2019-02-26T18:21:43.627Z,101872.00
2019-02-26T18:24:13.519Z,101871.00
2019-02-26T18:26:42.981Z,101884.00
2019-02-26T18:29:12.427Z,101882.00
2019-02-26T18:31:41.922Z,101889.00
2019-02-26T18:34:11.791Z,101889.00
2019-02-26T18:36:45.105Z,101892.00
2019-02-26T18:39:13.865Z,101892.00
2019-02-26T18:41:50.593Z,101882.00
2019-02-26T18:44:14.489Z,101887.00
2019-02-26T18:46:43.988Z,101882.00
2019-02-26T18:49:14.977Z,101883.00
2019-02-26T18:51:45.465Z,101894.00
2019-02-26T18:54:14.945Z,101902.00
2019-02-26T18:56:44.408Z,101903.00
2019-02-26T18:59:13.859Z,101908.00
2019-02-26T19:01:43.342Z,101907.00
2019-02-26T19:04:13.925Z,101899.00
2019-02-26T19:06:44.009Z,101895.00
2019-02-26T19:09:14.262Z,101895.00
2019-02-26T19:11:43.722Z,101884.00
2019-02-26T19:14:13.221Z,101895.00
2019-02-26T19:16:42.730Z,101894.00
2019-02-26T19:19:12.170Z,101892.00
2019-02-26T19:21:41.639Z,101901.00
2019-02-26T19:24:11.118Z,101901.00
2019-02-26T19:26:40.582Z,101906.00
2019-02-26T19:29:10.180Z,101905.00
2019-02-26T19:31:42.420Z,101907.00
2019-02-26T19:34:10.771Z,101906.00
2019-02-26T19:36:40.329Z,101911.00
2019-02-26T19:39:09.794Z,101902.00
2019-02-26T19:41:39.268Z,101910.00
2019-02-26T19:44:08.746Z,101908.00
2019-02-26T19:46:38.209Z,101903.00
2019-02-26T19:49:07.667Z,101907.00
2019-02-26T19:51:37.158Z,101902.00
2019-02-26T19:54:07.019Z,101899.00
2019-02-26T19:56:37.060Z,101893.00
2019-02-26T19:59:06.539Z,101903.00
2019-02-26T20:01:35.993Z,101904.00
2019-02-26T20:04:05.524Z,101907.00
2019-02-26T20:06:35.012Z,101903.00
2019-02-26T20:09:06.513Z,101894.00
2019-02-26T20:11:36.011Z,101903.00
2019-02-26T20:14:05.572Z,101905.00
2019-02-26T20:16:35.110Z,101905.00
2019-02-26T20:19:04.669Z,101893.00
2019-02-26T20:21:34.107Z,101903.00
2019-02-26T20:24:03.598Z,101901.00
2019-02-26T20:26:33.061Z,101891.00
2019-02-26T20:29:02.533Z,101888.00
2019-02-26T20:31:32.046Z,101903.00
2019-02-26T20:34:01.493Z,101905.00
2019-02-26T20:36:30.942Z,101899.00
2019-02-26T20:39:01.481Z,101895.00
2019-02-26T20:41:36.646Z,101902.00
2019-02-26T20:44:07.865Z,101892.00
2019-02-26T20:46:37.518Z,101892.00
2019-02-26T20:49:06.797Z,101894.00
2019-02-26T20:51:36.308Z,101903.00
2019-02-26T20:54:05.995Z,101892.00
2019-02-26T20:56:36.501Z,101901.00
2019-02-26T20:59:05.955Z,101898.00
2019-02-26T21:01:35.428Z,101890.00
2019-02-26T21:04:04.889Z,101899.00
2019-02-26T21:06:34.344Z,101894.00
2019-02-26T21:09:07.208Z,101894.00
2019-02-26T21:11:36.283Z,101905.00
2019-02-26T21:14:07.745Z,101904.00
2019-02-26T21:16:37.122Z,101904.00
2019-02-26T21:19:06.587Z,101902.00
2019-02-26T21:21:36.045Z,101903.00
2019-02-26T21:24:05.538Z,101909.00
2019-02-26T21:26:34.985Z,101905.00
2019-02-26T21:29:06.327Z,101909.00
2019-02-26T21:31:35.632Z,101918.00
2019-02-26T21:34:05.084Z,101923.00
2019-02-26T21:36:34.544Z,101930.00
2019-02-26T21:39:05.800Z,101933.00
2019-02-26T21:41:35.255Z,101933.00
2019-02-26T21:44:08.774Z,101921.00
2019-02-26T21:46:36.008Z,101926.00
2019-02-26T21:49:07.544Z,101934.00
2019-02-26T21:51:36.668Z,101936.00
2019-02-26T21:54:06.146Z,101931.00
2019-02-26T21:56:35.668Z,101937.00
2019-02-26T21:59:05.193Z,101934.00
2019-02-26T22:01:34.656Z,101938.00
2019-02-26T22:04:04.136Z,101935.00
2019-02-26T22:06:33.603Z,101939.00
2019-02-26T22:09:03.091Z,101934.00
2019-02-26T22:11:32.589Z,101935.00
2019-02-26T22:14:02.996Z,101935.00
2019-02-26T22:16:33.122Z,101931.00
2019-02-26T22:19:04.731Z,101935.00
2019-02-26T22:21:33.787Z,101933.00
2019-02-26T22:24:04.611Z,101931.00
2019-02-26T22:26:34.464Z,101936.00
2019-02-26T22:29:03.928Z,101933.00
2019-02-26T22:31:33.407Z,101930.00
2019-02-26T22:34:02.889Z,101947.00
2019-02-26T22:36:33.268Z,101934.00
2019-02-26T22:39:04.345Z,101931.00
2019-02-26T22:41:35.160Z,101927.00
2019-02-26T22:44:05.094Z,101929.00
2019-02-26T22:46:34.753Z,101929.00
2019-02-26T22:49:04.220Z,101928.00
2019-02-26T22:51:33.709Z,101947.00
2019-02-26T22:54:03.164Z,101952.00
2019-02-26T22:56:33.291Z,101945.00
2019-02-26T22:59:02.796Z,101950.00
2019-02-26T23:01:36.689Z,101956.00
2019-02-26T23:04:06.472Z,101955.00
2019-02-26T23:06:35.984Z,101954.00
2019-02-26T23:09:07.450Z,101953.00
2019-02-26T23:11:37.396Z,101951.00
2019-02-26T23:14:07.152Z,101963.00
2019-02-26T23:16:36.964Z,101967.00
2019-02-26T23:19:06.620Z,101969.00
2019-02-26T23:21:36.980Z,101962.00
2019-02-26T23:24:07.444Z,101965.00
2019-02-26T23:26:41.886Z,101968.00
2019-02-26T23:29:08.969Z,101965.00
2019-02-26T23:31:38.604Z,101960.00
2019-02-26T23:34:08.159Z,101965.00
2019-02-26T23:36:37.692Z,101952.00
2019-02-26T23:39:08.596Z,101954.00
2019-02-26T23:41:38.114Z,101959.00
2019-02-26T23:44:07.750Z,101966.00
2019-02-26T23:46:37.510Z,101954.00
2019-02-26T23:49:07.147Z,101960.00
2019-02-26T23:51:36.603Z,101953.00
2019-02-26T23:54:07.323Z,101945.00
2019-02-26T23:56:37.451Z,101949.00
2019-02-26T23:59:06.922Z,101943.00
